Aviation Digital Data Service (ADDS)

Output produced by METARs form (0403 UTC 05 March 2015)
found at http://aviationweather.gov/adds/metars/
 
KHLG 050328Z 0503/0524 30008G16KT 2SM -SN SCT004 OVC008 
     TEMPO 0503/0506 3/4SM -SN OVC004 
     FM050900 31010KT 6SM -SN OVC015 
     FM051700 34008KT P6SM BKN025 
     FM052300 32005KT P6SM SKC